イスタンブル の空港の天気 - METARとTAF

アタテュルク国際空港(イスタンブル) ( LTBA / IST ) - トルコ イスタンブル
飛行場実況気象(Metar)
観測時間09/23 02:20 EET (09/22 23:20 UTC)
風向・風速北 6m/s
視程10km以上
天気現象弱いしゅう雨
少しの雲 雲底高度 550m
全天の8割程度の雲 雲底高度 980m
全天の8割程度の雲 雲底高度 2440m
気温13℃
湿度88%
気圧1015hPa
METARLTBA 222320Z 36012KT 9999 -SHRA FEW018CB BKN032 BKN080 13/11 Q1015 NOSIG RMK RWY23 35010KT
過去の天気等 Google飛行場航空写真 Wunderground天気予報

過去48時間のMETAR

飛行場予報(TAF)
発表時間: 9/23 01:40 EET (9/22 22:40 UTC)
予報対象時間: 23日3時 EET ~ 24日9時 EET
風向・風速北 6m/s
視程10km以上
天気現象弱いしゅう雨
全天の8割程度の雲 雲底高度 760m
全天の8割程度の雲 雲底高度 2740m
23日21時 EET ~ 23日24時 EET に徐々に
風向・風速不定 1m/s
全天の4割程度の雲 雲底高度 910m
全天の4割程度の雲 雲底高度 3050m
TAF LTBA 222240Z 2300/2406 35012KT 9999 -SHRA BKN025 BKN090
BECMG 2318/2321 VRB02KT SCT030 SCT100